File downld08.txt from Feet First Farm

                  Temp     Hi    Low   Out    Dew  Wind  Wind   Wind    Hi    Hi   Wind   Heat    THW                Rain    Heat    Cool    In     In    In     In   Wind  Wind    ISS   Arc.
  Date    Time     Out   Temp   Temp   Hum    Pt. Speed   Dir    Run Speed   Dir  Chill  Index  Index   Bar    Rain  Rate    D-D     D-D    Temp   Hum    Dew   Heat  Samp   Tx   Recept  Int.
------------------------------------------------------------------------------------------------------------------------------------------------------------------------------------------------
 4/29/26 12:30a   43.5   45.5   43.5    51   26.6   1.0     E   0.50   3.0     E   43.5   42.4   42.4  30.115  0.00  0.00   0.448   0.000   67.1    43   43.8   65.0   651    4    100.0   30 
 4/29/26  1:00a   41.7   43.4   41.6    62   29.6   2.0     E   1.00   4.0   ENE   41.7   40.9   40.9  30.130  0.00  0.00   0.485   0.000   67.0    44   44.4   65.0   651    4    100.0   30 
 4/29/26  1:30a   41.9   42.5   41.6    64   30.6   1.0     E   0.50   4.0    SE   41.9   41.2   41.2  30.136  0.00  0.00   0.481   0.000   66.8    44   44.2   64.8   652    4    100.0   30 
 4/29/26  2:00a   41.3   41.9   41.1    69   31.9   2.0   ENE   1.00   4.0     E   41.2   40.7   40.6  30.114  0.00  0.00   0.494   0.000   66.8    45   44.8   64.9   647    4    100.0   30 
 4/29/26  2:30a   40.7   41.3   40.7    73   32.7   3.0   ENE   1.50   6.0     E   39.2   40.2   38.7  30.127  0.00  0.00   0.506   0.000   66.7    45   44.7   64.8   650    4    100.0   30 
 4/29/26  3:00a   40.5   40.9   40.5    77   33.9   2.0   ENE   1.00   7.0   ENE   40.3   40.1   39.9  30.099  0.00  0.00   0.510   0.000   66.5    46   45.1   64.6   648    4    100.0   30 
 4/29/26  3:30a   40.2   40.6   40.2    80   34.5   2.0   ENE   1.00   7.0     E   40.0   39.9   39.7  30.078  0.00  0.00   0.517   0.000   66.3    46   44.9   64.4   645    4    100.0   30 
 4/29/26  4:00a   39.9   40.2   39.9    82   34.9   1.0   ENE   0.50   8.0   ENE   39.9   39.6   39.6  30.066  0.00  0.00   0.523   0.000   66.2    47   45.4   64.3   643    4    100.0   30 
 4/29/26  4:30a   39.2   39.9   39.2    84   34.8   1.0   ENE   0.50   5.0   ENE   39.2   39.0   39.0  30.070  0.00  0.00   0.537   0.000   66.1    47   45.3   64.2   649    4    100.0   30 
 4/29/26  5:00a   38.9   39.3   38.9    86   35.1   1.0   ENE   0.50   3.0   ENE   38.9   38.7   38.7  30.067  0.00  0.00   0.544   0.000   65.9    48   45.6   64.1   648    4    100.0   30 
 4/29/26  5:30a   38.3   38.9   38.3    87   34.8   1.0   ENE   0.50   4.0   ENE   38.3   38.1   38.1  30.069  0.00  0.00   0.556   0.000   65.7    48   45.5   63.8   652    4    100.0   30 
 4/29/26  6:00a   37.9   38.4   37.9    90   35.2   1.0     E   0.50   5.0     E   37.9   37.8   37.8  30.085  0.00  0.00   0.565   0.000   65.5    48   45.3   63.6   650    4    100.0   30 
 4/29/26  6:30a   38.1   38.3   37.9    88   34.9   0.0   ESE   0.00   3.0     E   38.1   38.0   38.0  30.081  0.00  0.00   0.560   0.000   65.6    48   45.4   63.7   651    4    100.0   30 
 4/29/26  7:00a   40.7   40.7   38.1    91   38.3   1.0     E   0.50   3.0   SSW   40.7   40.6   40.6  30.081  0.00  0.00   0.506   0.000   66.3    45   44.3   64.3   652    4    100.0   30 
 4/29/26  7:30a   42.4   42.4   40.7    88   39.1   1.0   SSW   0.50   4.0   SSW   42.4   42.3   42.3  30.087  0.00  0.00   0.471   0.000   66.4    42   42.6   64.1   651    4    100.0   30 
 4/29/26  8:00a   43.1   43.4   42.4    82   38.0   2.0   SSW   1.00   4.0   SSW   43.1   42.9   42.9  30.083  0.00  0.00   0.456   0.000   66.3    42   42.5   64.0   651    4    100.0   30 
 4/29/26  8:30a   43.8   43.8   42.9    82   38.7   2.0   WNW   1.00   4.0   SSW   43.8   43.6   43.6  30.071  0.00  0.00   0.442   0.000   66.4    44   43.8   64.3   652    4    100.0   30 
 4/29/26  9:00a   46.6   46.6   43.8    79   40.4   1.0   WSW   0.50   4.0    SW   46.6   46.4   46.4  30.059  0.00  0.00   0.383   0.000   66.4    43   43.2   64.2   651    4    100.0   30 
 4/29/26  9:30a   48.2   48.2   46.6    78   41.7   2.0    SW   1.00   5.0    SW   48.2   48.0   48.0  30.058  0.00  0.00   0.350   0.000   66.2    42   42.4   63.9   650    4    100.0   30 
 4/29/26 10:00a   51.5   51.6   48.2    71   42.4   2.0   SSE   1.00   7.0     S   51.5   50.9   50.9  30.023  0.00  0.00   0.281   0.000   66.2    42   42.4   63.9   651    4    100.0   30 
 4/29/26 10:30a   54.8   54.8   51.5    65   43.3   3.0   SSW   1.50  10.0   SSW   54.8   53.7   53.7  30.010  0.00  0.00   0.213   0.000   66.2    41   41.8   63.8   650    4    100.0   30 
 4/29/26 11:00a   56.2   56.3   54.9    68   45.8   2.0    SW   1.00   8.0   WSW   56.2   55.2   55.2  30.000  0.00  0.00   0.183   0.000   66.1    41   41.7   63.7   651    4    100.0   30 
 4/29/26 11:30a   58.5   58.5   56.3    60   44.7   5.0   SSW   2.50  10.0     S   58.2   57.1   56.8  29.970  0.00  0.00   0.135   0.000   66.0    42   42.2   63.7   650    4    100.0   30 
 4/29/26 12:00p   60.7   60.8   58.5    56   44.9   5.0     S   2.50  16.0   SSE   60.7   59.1   59.1  29.965  0.00  0.00   0.090   0.000   65.9    42   42.1   63.6   652    4    100.0   30 
 4/29/26 12:30p   61.4   61.7   60.6    53   44.1   7.0     S   3.50  15.0   SSE   60.9   59.6   59.1  29.967  0.00  0.00   0.075   0.000   66.0    42   42.2   63.7   651    4    100.0   30 
 4/29/26  1:00p   62.3   62.6   61.0    53   44.9   6.0   SSW   3.00  13.0     S   62.3   60.6   60.6  29.959  0.00  0.00   0.056   0.000   66.0    42   42.2   63.7   650    4    100.0   30 
 4/29/26  1:30p   64.6   64.6   62.3    50   45.5   6.0    SE   3.00  15.0   ESE   64.6   62.8   62.8  29.946  0.00  0.00   0.008   0.000   66.0    42   42.2   63.7   647    4    100.0   30 
 4/29/26  2:00p   64.0   64.7   63.9    55   47.5   6.0    SE   3.00  13.0   SSW   64.0   62.6   62.6  29.940  0.00  0.00   0.021   0.000   66.1    42   42.3   63.8   644    4    100.0   30 
 4/29/26  2:30p   64.5   64.6   63.8    52   46.5   6.0    SE   3.00  14.0     S   64.5   62.8   62.8  29.932  0.00  0.00   0.010   0.000   66.2    42   42.4   63.9   649    4    100.0   30 
 4/29/26  3:00p   64.4   64.5   63.8    55   47.9   6.0    SE   3.00  16.0   SSE   64.4   63.0   63.0  29.927  0.00  0.00   0.012   0.000   65.7    43   42.6   63.5   649    4    100.0   30 
 4/29/26  3:30p   63.5   64.5   63.3    54   46.6   7.0   SSE   3.50  21.0   SSE   63.5   62.0   62.0  29.909  0.00  0.00   0.031   0.000   69.9    47   48.7   68.0   654    4    100.0   30 
 4/29/26  4:00p   63.0   63.5   63.0    53   45.6   7.0    SE   3.50  21.0     S   62.9   61.3   61.2  29.890  0.00  0.00   0.042   0.000   71.8    46   49.9   70.4   653    4    100.0   30 
 4/29/26  4:30p   62.8   63.3   62.8    55   46.4   7.0   SSE   3.50  16.0     S   62.7   61.3   61.2  29.878  0.00  0.00   0.046   0.000   72.5    46   50.5   71.4   653    4    100.0   30 
 4/29/26  5:00p   61.9   63.2   61.9    55   45.5   6.0    SE   3.00  13.0   SSE   61.9   60.3   60.3  29.880  0.00  0.00   0.065   0.000   72.8    46   50.8   71.9   654    4    100.0   30 
 4/29/26  5:30p   60.8   62.0   60.8    55   44.5   6.0    SE   3.00  15.0   SSE   60.6   59.1   58.9  29.881  0.00  0.00   0.088   0.000   72.7    46   50.7   71.7   653    4    100.0   30 
 4/29/26  6:00p   59.8   60.8   59.8    53   42.6   6.0    SE   3.00  15.0    SE   59.4   58.0   57.6  29.868  0.00  0.00   0.108   0.000   72.4    47   51.0   71.4   653    4    100.0   30 
 4/29/26  6:30p   58.9   59.8   58.9    54   42.3   6.0    SE   3.00  16.0   ESE   58.3   57.1   56.5  29.861  0.00  0.00   0.127   0.000   72.0    47   50.7   70.8   650    4    100.0   30 
 4/29/26  7:00p   58.2   58.9   58.2    54   41.6   5.0    SE   2.50  12.0   ESE   57.8   56.4   56.0  29.857  0.00  0.00   0.142   0.000   71.7    47   50.4   70.4   652    4    100.0   30 
 4/29/26  7:30p   56.9   58.1   56.9    58   42.3   4.0   SSE   2.00  11.0    SE   56.9   55.4   55.4  29.854  0.00  0.00   0.169   0.000   71.4    47   50.1   70.0   651    4    100.0   30 
 4/29/26  8:00p   55.7   57.0   55.7    63   43.3   4.0   SSE   2.00  12.0   SSE   55.4   54.5   54.2  29.859  0.00  0.00   0.194   0.000   71.1    47   49.8   69.5   653    4    100.0   30 
 4/29/26  8:30p   55.1   55.7   55.1    66   43.9   4.0   SSE   2.00  13.0   ESE   54.7   54.1   53.7  29.855  0.00  0.00   0.206   0.000   70.7    48   50.0   69.1   654    4    100.0   30 
 4/29/26  9:00p   53.8   55.1   53.8    71   44.6   4.0    SE   2.00  12.0     E   53.3   53.1   52.6  29.862  0.00  0.00   0.233   0.000   70.5    48   49.9   68.8   653    4    100.0   30 
 4/29/26  9:30p   52.1   53.8   52.1    75   44.4   4.0     E   2.00  14.0   ESE   51.3   51.7   50.9  29.853  0.00  0.00   0.269   0.000   70.1    48   49.5   68.3   653    4    100.0   30 
 4/29/26 10:00p   50.5   52.1   50.4    78   43.9   4.0    SE   2.00  12.0   ESE   49.5   50.3   49.3  29.870  0.00  0.00   0.302   0.000   69.8    48   49.2   68.0   650    4    100.0   30 
 4/29/26 10:30p   49.1   50.4   49.1    79   42.9   2.0   WSW   1.00  10.0   WSW   49.1   49.0   49.0  29.857  0.00  0.00   0.331   0.000   69.5    49   49.5   67.8   651    4    100.0   30 
 4/29/26 11:00p   47.8   49.2   47.8    82   42.6   3.0    SE   1.50   8.0   ENE   47.2   47.7   47.1  29.865  0.00  0.00   0.358   0.000   69.2    49   49.2   67.6   653    4    100.0   30 
 4/29/26 11:30p   47.1   47.8   47.1    83   42.2   1.0   WNW   0.50   6.0     S   47.1   47.0   47.0  29.862  0.00  0.00   0.373   0.000   68.8    49   48.9   67.2   653    4    100.0   30 
 4/30/26 12:00a   46.3   47.1   46.3    85   42.0   1.0   ENE   0.50   6.0    SW   46.3   46.3   46.3  29.859  0.00  0.00   0.390   0.000   68.5    49   48.6   67.0   652    4    100.0   30 
 4/30/26 12:30a   45.7   46.4   45.6    87   42.1   1.0   SSW   0.50   4.0    SW   45.7   45.7   45.7  29.857  0.00  0.00   0.402   0.000   68.1    49   48.2   66.6   650    4    100.0   30 
 4/30/26  1:00a   45.2   45.7   45.1    88   41.9   1.0   SSE   0.50   9.0   SSE   45.2   45.2   45.2  29.844  0.00  0.00   0.412   0.000   67.8    49   47.9   66.3   653    4    100.0   30 
 4/30/26  1:30a   45.1   45.2   45.0    88   41.8   1.0     E   0.50   3.0     E   45.1   45.1   45.1  29.838  0.00  0.00   0.415   0.000   67.4    49   47.6   65.9   654    4    100.0   30 
 4/30/26  2:00a   44.8   45.1   44.8    89   41.8   1.0   SSE   0.50   3.0     E   44.8   44.9   44.9  29.825  0.00  0.00   0.421   0.000   67.0    49   47.2   65.4   653    4    100.0   30 
 4/30/26  2:30a   44.7   44.9   44.7    91   42.2   1.0   SSW   0.50   4.0   SSW   44.7   44.8   44.8  29.817  0.01  0.00   0.423   0.000   66.7    50   47.5   65.1   652    4    100.0   30 
 4/30/26  3:00a   44.4   44.7   44.4    92   42.2   0.0   SSE   0.00   2.0   SSE   44.4   44.5   44.5  29.805  0.03  0.08   0.429   0.000   66.3    50   47.1   64.7   650    4    100.0   30 
 4/30/26  3:30a   44.2   44.4   44.2    93   42.3   0.0   SSW   0.00   4.0   WSW   44.2   44.4   44.4  29.794  0.04  0.09   0.433   0.000   66.0    50   46.8   64.3   654    4    100.0   30 
 4/30/26  4:00a   44.1   44.3   44.1    94   42.5   1.0   SSW   0.50   5.0   SSE   44.1   44.3   44.3  29.785  0.04  0.13   0.435   0.000   65.6    50   46.5   63.9   652    4    100.0   30 
 4/30/26  4:30a   44.2   44.2   44.0    95   42.9   1.0   WSW   0.50   5.0     S   44.2   44.4   44.4  29.796  0.06  0.13   0.433   0.000   65.3    50   46.2   63.5   646    4    100.0   30 
 4/30/26  5:00a   43.9   44.3   43.9    95   42.6   1.0     S   0.50   4.0   SSW   43.9   44.1   44.1  29.792  0.06  0.12   0.440   0.000   64.9    50   45.8   63.1   646    4    100.0   30 
 4/30/26  5:30a   44.0   44.0   43.8    96   42.9   2.0   SSE   1.00   7.0   ESE   44.0   44.2   44.2  29.779  0.05  0.12   0.438   0.000   64.6    50   45.5   62.8   644    4    100.0   30 
 4/30/26  6:00a   44.1   44.1   43.9    96   43.0   2.0    SE   1.00   8.0    SE   44.1   44.3   44.3  29.774  0.02  0.07   0.435   0.000   64.3    50   45.3   62.4   652    4    100.0   30 
 4/30/26  6:30a   44.1   44.2   44.0    96   43.0   1.0     S   0.50   4.0   SSE   44.1   44.3   44.3  29.770  0.01  0.05   0.435   0.000   66.8    49   47.0   65.2   646    4    100.0   30 
 4/30/26  7:00a   44.4   44.4   44.1    96   43.3   0.0   ESE   0.00   3.0    NE   44.4   44.6   44.6  29.771  0.01  0.00   0.429   0.000   68.1    47   47.1   66.4   645    4    100.0   30 
 4/30/26  7:30a   44.8   44.8   44.4    96   43.7   0.0    SE   0.00   3.0   ESE   44.8   45.0   45.0  29.772  0.01  0.00   0.421   0.000   68.6    47   47.6   66.9   646    4    100.0   30 
 4/30/26  8:00a   45.3   45.4   44.7    96   44.2   0.0   SSW   0.00   3.0   SSE   45.3   45.6   45.6  29.764  0.00  0.00   0.410   0.000   69.1    48   48.6   67.4   649    4    100.0   30 
 4/30/26  8:30a   45.7   45.8   45.3    96   44.6   0.0   SSW   0.00   2.0   SSW   45.7   46.0   46.0  29.762  0.00  0.00   0.402   0.000   69.7    48   49.1   67.9   651    4    100.0   30 
 4/30/26  9:00a   46.4   46.4   45.8    96   45.3   1.0     S   0.50   3.0   SSW   46.4   46.7   46.7  29.755  0.03  0.08   0.387   0.000   69.8    48   49.2   68.0   652    4    100.0   30 
 4/30/26  9:30a   47.2   47.2   46.4    96   46.1   1.0   SSW   0.50   4.0   SSE   47.2   47.6   47.6  29.746  0.03  0.09   0.371   0.000   69.9    48   49.3   68.1   649    4    100.0   30 
 4/30/26 10:00a   47.7   47.7   47.1    95   46.3   2.0   SSW   1.00   6.0   SSE   47.7   48.1   48.1  29.744  0.01  0.04   0.360   0.000   69.9    47   48.7   68.0   648    4    100.0   30 
 4/30/26 10:30a   47.7   48.0   47.6    94   46.1   3.0     S   1.50   7.0     S   47.1   48.0   47.4  29.745  0.00  0.00   0.360   0.000   70.4    48   49.8   68.7   651    4    100.0   30 
 4/30/26 11:00a   47.0   47.7   47.0    95   45.6   3.0     S   1.50   7.0   SSE   46.3   47.3   46.6  29.747  0.00  0.00   0.375   0.000   70.5    48   49.9   68.8   653    4    100.0   30 
 4/30/26 11:30a   47.2   47.3   46.9    95   45.8   2.0   SSE   1.00   7.0   ESE   47.2   47.5   47.5  29.747  0.00  0.00   0.371   0.000   71.1    48   50.4   69.6   655    4    100.0   30 
 4/30/26 12:00p   47.7   47.7   47.2    95   46.3   2.0   SSE   1.00   6.0   SSE   47.7   48.1   48.1  29.752  0.00  0.00   0.360   0.000   71.0    48   50.3   69.5   651    4    100.0   30 
 4/30/26 12:30p   48.1   48.2   47.5    95   46.7   2.0     S   1.00   6.0   SSE   48.1   48.5   48.5  29.746  0.00  0.00   0.352   0.000   70.7    48   50.0   69.1   653    4    100.0   30 
 4/30/26  1:00p   48.9   48.9   48.1    95   47.5   2.0   SSW   1.00   5.0   SSE   48.9   49.4   49.4  29.737  0.00  0.00   0.335   0.000   70.7    48   50.0   69.1   652    4    100.0   30 
 4/30/26  1:30p   48.9   49.0   48.7    95   47.5   2.0   SSW   1.00   4.0   SSE   48.9   49.4   49.4  29.736  0.00  0.00   0.335   0.000   71.4    48   50.7   70.1   654    4    100.0   30 
 4/30/26  2:00p   49.2   49.3   48.9    94   47.5   1.0    SW   0.50   4.0   WSW   49.2   49.7   49.7  29.734  0.00  0.00   0.329   0.000   72.1    48   51.3   71.0   654    4    100.0   30 
 4/30/26  2:30p   49.2   49.3   48.9    93   47.3   1.0   WSW   0.50   3.0   WSW   49.2   49.6   49.6  29.723  0.00  0.00   0.329   0.000   72.6    48   51.8   71.8   651    4    100.0   30 
 4/30/26  3:00p   50.1   50.1   49.1    93   48.2   1.0   SSW   0.50   3.0    SW   50.1   50.5   50.5  29.721  0.00  0.00   0.310   0.000   72.2    48   51.4   71.2   652    4    100.0   30 
 4/30/26  3:30p   50.9   51.0   50.1    91   48.4   1.0   SSE   0.50   4.0     S   50.9   51.2   51.2  29.714  0.00  0.00   0.294   0.000   72.0    49   51.8   71.0   653    4    100.0   30 
 4/30/26  4:00p   51.4   51.5   50.9    92   49.2   1.0     W   0.50   4.0   WNW   51.4   51.7   51.7  29.725  0.00  0.00   0.283   0.000   72.9    49   52.6   72.3   650    4    100.0   30 
 4/30/26  4:30p   50.5   51.4   50.5    93   48.6   1.0   WNW   0.50   4.0   WNW   50.5   50.9   50.9  29.718  0.00  0.00   0.302   0.000   71.8    49   51.6   70.7   651    4    100.0   30 
 4/30/26  5:00p   50.3   50.5   50.3    94   48.6   1.0     S   0.50   3.0   SSW   50.3   50.7   50.7  29.722  0.00  0.00   0.306   0.000   71.3    50   51.7   70.1   651    4    100.0   30 
 4/30/26  5:30p   50.6   50.7   50.1    91   48.1   0.0     S   0.00   3.0   SSE   50.6   50.9   50.9  29.725  0.00  0.00   0.300   0.000   71.2    50   51.6   70.0   651    4    100.0   30 
 4/30/26  6:00p   51.4   51.4   50.6    91   48.9   0.0   SSE   0.00   2.0   SSE   51.4   51.6   51.6  29.724  0.00  0.00   0.283   0.000   71.3    50   51.7   70.1   653    4    100.0   30 
 4/30/26  6:30p   50.9   51.4   50.9    92   48.7   1.0   SSE   0.50   4.0   WSW   50.9   51.2   51.2  29.732  0.00  0.00   0.294   0.000   70.8    50   51.2   69.4   652    4    100.0   30 
 4/30/26  7:00p   50.5   51.0   50.4    94   48.8   0.0    NW   0.00   2.0   NNW   50.5   50.9   50.9  29.744  0.02  0.00   0.302   0.000   70.3    50   50.8   68.7   653    4    100.0   30 
 4/30/26  7:30p   49.8   50.5   49.7    95   48.4   1.0     N   0.50   4.0   SSE   49.8   50.3   50.3  29.755  0.01  0.05   0.317   0.000   69.9    50   50.4   68.2   653    4    100.0   30 
 4/30/26  8:00p   49.2   49.8   49.1    95   47.8   0.0     W   0.00   4.0   WSW   49.2   49.7   49.7  29.753  0.00  0.00   0.329   0.000   69.4    50   49.9   67.8   653    4    100.0   30 
 4/30/26  8:30p   48.9   49.2   48.9    95   47.5   0.0     W   0.00   3.0   WSW   48.9   49.4   49.4  29.765  0.01  0.00   0.335   0.000   69.0    50   49.6   67.5   654    4    100.0   30 
 4/30/26  9:00p   48.8   49.0   48.8    95   47.4   0.0     W   0.00   3.0   WNW   48.8   49.3   49.3  29.785  0.00  0.00   0.338   0.000   68.5    50   49.1   67.1   651    4    100.0   30 
 4/30/26  9:30p   48.2   48.9   48.2    95   46.8   1.0     W   0.50   4.0   WNW   48.2   48.6   48.6  29.792  0.01  0.00   0.350   0.000   68.1    50   48.8   66.7   652    4    100.0   30 
 4/30/26 10:00p   47.6   48.2   47.6    95   46.2   0.0     N   0.00   3.0    NW   47.6   48.0   48.0  29.802  0.00  0.00   0.363   0.000   67.7    50   48.4   66.3   652    4    100.0   30 
 4/30/26 10:30p   47.0   47.7   47.0    95   45.6   0.0     N   0.00   2.0     N   47.0   47.3   47.3  29.807  0.00  0.00   0.375   0.000   67.3    50   48.0   65.8   653    4    100.0   30 
 4/30/26 11:00p   46.1   47.1   46.1    94   44.5   1.0   WNW   0.50   5.0   NNW   46.1   46.4   46.4  29.805  0.01  0.00   0.394   0.000   66.9    50   47.6   65.4   654    4    100.0   30 
 4/30/26 11:30p   44.9   46.1   44.9    92   42.7   1.0   WNW   0.50   6.0     W   44.9   45.0   45.0  29.811  0.00  0.00   0.419   0.000   66.6    50   47.4   65.0   653    4    100.0   30 
 5/01/26 12:00a   44.4   44.9   44.3    92   42.2   1.0   ENE   0.50   6.0     W   44.4   44.5   44.5  29.813  0.00  0.00   0.429   0.000   66.2    50   47.0   64.5   652    4    100.0   30 
 5/01/26 12:30a   44.0   44.4   44.0    92   41.8   1.0     N   0.50   5.0   WNW   44.0   44.1   44.1  29.818  0.00  0.00   0.438   0.000   65.9    51   47.3   64.3   652    4    100.0   30 
 5/01/26  1:00a   43.2   44.0   43.2    92   41.0   1.0     N   0.50   5.0    NW   43.2   43.3   43.3  29.824  0.00  0.00   0.454   0.000   65.4    51   46.8   63.7   654    4    100.0   30 
 5/01/26  1:30a   42.5   43.3   42.5    92   40.3   1.0    SW   0.50   4.0    NW   42.5   42.5   42.5  29.826  0.00  0.00   0.469   0.000   65.1    51   46.5   63.4   651    4    100.0   30 
 5/01/26  2:00a   42.3   42.6   42.3    92   40.1   0.0   NNE   0.00   6.0   WNW   42.3   42.3   42.3  29.822  0.00  0.00   0.473   0.000   64.7    51   46.1   63.0   654    4    100.0   30 
 5/01/26  2:30a   41.0   42.3   40.9    93   39.1   0.0   NNE   0.00   1.0   NNE   41.0   41.0   41.0  29.828  0.00  0.00   0.500   0.000   64.3    51   45.8   62.5   654    4    100.0   30 
 5/01/26  3:00a   40.8   41.1   40.7    93   38.9   0.0   WSW   0.00   3.0   WNW   40.8   40.8   40.8  29.823  0.00  0.00   0.504   0.000   63.9    51   45.4   62.1   652    4    100.0   30 
 5/01/26  3:30a   39.8   40.8   39.8    91   37.4   0.0   SSW   0.00   2.0   WNW   39.8   39.7   39.7  29.824  0.00  0.00   0.525   0.000   63.5    51   45.0   61.7   650    4    100.0   30 
 5/01/26  4:00a   39.5   39.8   39.4    90   36.8   1.0    NE   0.50   3.0    NE   39.5   39.4   39.4  29.826  0.00  0.00   0.531   0.000   63.2    51   44.8   61.4   652    4    100.0   30 
 5/01/26  4:30a   39.6   39.6   39.4    91   37.2   0.0   NNE   0.00   2.0   NNE   39.6   39.5   39.5  29.831  0.00  0.00   0.529   0.000   62.7    51   44.3   60.9   645    4    100.0   30 
 5/01/26  5:00a   39.7   39.9   39.5    90   37.0   0.0   ENE   0.00   4.0   WSW   39.7   39.6   39.6  29.837  0.00  0.00   0.527   0.000   62.3    51   43.9   60.4   646    4    100.0   30 
 5/01/26  5:30a   39.6   39.7   39.4    90   36.9   0.0     E   0.00   3.0    NE   39.6   39.5   39.5  29.845  0.00  0.00   0.529   0.000   62.0    51   43.7   60.1   643    4    100.0   30 
 5/01/26  6:00a   39.2   39.6   39.1    89   36.2   1.0   NNE   0.50   5.0   NNW   39.2   39.1   39.1  29.843  0.00  0.00   0.537   0.000   61.6    51   43.3   59.7   653    4    100.0   30 
 5/01/26  6:30a   38.8   39.2   38.8    90   36.1   0.0    NW   0.00   3.0   NNW   38.8   38.7   38.7  29.859  0.00  0.00   0.546   0.000   65.3    49   45.6   63.5   654    4    100.0   30 
 5/01/26  7:00a   41.9   41.9   38.8    87   38.3   0.0   ENE   0.00   4.0    NE   41.9   41.8   41.8  29.867  0.00  0.00   0.481   0.000   67.7    47   46.7   66.0   651    4    100.0   30 
 5/01/26  7:30a   41.8   42.1   41.7    86   37.9   1.0   NNE   0.50   4.0     W   41.8   41.6   41.6  29.875  0.00  0.00   0.483   0.000   69.2    46   47.5   67.3   653    4    100.0   30 
 5/01/26  8:00a   43.1   43.2   41.8    83   38.3   1.0   WNW   0.50   5.0   NNW   43.1   42.9   42.9  29.880  0.00  0.00   0.456   0.000   69.3    46   47.6   67.4   648    4    100.0   30 
 5/01/26  8:30a   45.6   45.6   43.1    77   38.8   1.0   WNW   0.50   9.0   WNW   45.6   45.3   45.3  29.884  0.00  0.00   0.404   0.000   69.2    46   47.5   67.3   648    4    100.0   30 
 5/01/26  9:00a   47.4   47.4   45.4    74   39.5   2.0   NNE   1.00   7.0   WNW   47.4   47.1   47.1  29.881  0.00  0.00   0.367   0.000   69.3    46   47.6   67.4   649    4    100.0   30 
 5/01/26  9:30a   49.0   49.0   47.3    72   40.4   3.0    NE   1.50  10.0   WNW   48.5   48.6   48.1  29.884  0.00  0.00   0.333   0.000   70.0    46   48.3   68.0   651    4    100.0   30 
 5/01/26 10:00a   50.2   50.2   48.9    66   39.3   3.0    NW   1.50  11.0    NW   49.9   49.6   49.3  29.879  0.00  0.00   0.308   0.000   70.7    46   48.9   68.9   650    4    100.0   30 
 5/01/26 10:30a   51.1   51.5   50.2    62   38.5   2.0     N   1.00  12.0    NW   51.1   50.3   50.3  29.877  0.00  0.00   0.290   0.000   71.5    46   49.6   70.0   653    4    100.0   30 
 5/01/26 11:00a   52.0   52.0   50.3    64   40.2   2.0   NNE   1.00   7.0   WSW   52.0   51.1   51.1  29.878  0.00  0.00   0.271   0.000   71.5    43   47.8   69.7   653    4    100.0   30 
 5/01/26 11:30a   52.2   52.6   52.0    60   38.7   3.0   NNE   1.50  12.0   WSW   52.1   51.1   51.0  29.878  0.00  0.00   0.267   0.000   70.8    43   47.2   68.8   649    4    100.0   30 
 5/01/26 12:00p   52.8   53.5   51.9    56   37.5   3.0     N   1.50  10.0    NW   52.8   51.5   51.5  29.872  0.00  0.00   0.254   0.000   70.8    44   47.8   68.9   649    4    100.0   30 
 5/01/26 12:30p   53.7   54.5   52.7    54   37.4   3.0   WNW   1.50  12.0   WNW   53.7   52.2   52.2  29.863  0.00  0.00   0.235   0.000   70.7    45   48.3   68.8   650    4    100.0   30 
 5/01/26  1:00p   54.1   55.2   53.2    52   36.9   3.0   WNW   1.50  10.0     W   54.1   52.5   52.5  29.858  0.00  0.00   0.227   0.000   70.0    45   47.7   67.9   654    4    100.0   30 
 5/01/26  1:30p   55.3   55.3   54.1    57   40.3   4.0     W   2.00  11.0   WNW   55.0   53.8   53.5  29.856  0.00  0.00   0.202   0.000   69.9    46   48.2   67.9   651    4    100.0   30 
 5/01/26  2:00p   56.2   56.5   55.3    46   35.7   2.0     N   1.00   8.0     N   56.2   54.1   54.1  29.855  0.00  0.00   0.183   0.000   69.8    46   48.1   67.8   651    4    100.0   30 
 5/01/26  2:30p   56.0   56.5   55.2    43   33.8   2.0   NNE   1.00   8.0   WNW   56.0   53.7   53.7  29.860  0.00  0.00   0.188   0.000   70.5    46   48.7   68.6   651    4    100.0   30 
 5/01/26  3:00p   57.1   57.1   55.8    42   34.2   3.0    NW   1.50  11.0   WNW   57.1   54.7   54.7  29.845  0.00  0.00   0.165   0.000   71.2    46   49.4   69.6   652    4    100.0   30 
 5/01/26  3:30p   56.3   57.1   56.1    39   31.6   3.0    NW   1.50  11.0   WNW   56.3   53.8   53.8  29.834  0.00  0.00   0.181   0.000   71.6    46   49.7   70.1   653    4    100.0   30 
 5/01/26  4:00p   56.4   57.5   55.8    38   31.1   2.0     W   1.00  11.0     W   56.4   53.8   53.8  29.834  0.00  0.00   0.179   0.000   71.8    46   49.9   70.4   651    4    100.0   30 
 5/01/26  4:30p   57.8   57.9   56.3    45   36.6   3.0   WSW   1.50  10.0     S   57.8   55.5   55.5  29.828  0.00  0.00   0.150   0.000   71.9    45   49.4   70.5   650    4    100.0   30 
 5/01/26  5:00p   58.8   58.8   57.9    38   33.2   3.0     W   1.50  11.0    NW   58.8   56.0   56.0  29.835  0.00  0.00   0.129   0.000   72.3    46   50.4   71.1   653    4    100.0   30 
 5/01/26  5:30p   58.8   59.0   58.4    37   32.6   3.0     W   1.50  10.0    NW   58.8   56.0   56.0  29.838  0.00  0.00   0.129   0.000   72.4    46   50.4   71.3   654    4    100.0   30 
 5/01/26  6:00p   57.2   59.5   57.1    38   31.8   3.0     W   1.50  10.0   WNW   57.2   54.6   54.6  29.840  0.00  0.00   0.162   0.000   72.2    46   50.3   71.0   649    4    100.0   30 
 5/01/26  6:30p   56.9   58.0   56.9    36   30.2   3.0     W   1.50  10.0    SW   56.9   54.2   54.2  29.838  0.00  0.00   0.169   0.000   71.8    47   50.5   70.5   653    4    100.0   30 
 5/01/26  7:00p   56.1   56.9   56.1    39   31.5   2.0     W   1.00   8.0     W   56.1   53.6   53.6  29.837  0.00  0.00   0.185   0.000   71.4    47   50.1   70.0   649    4    100.0   30 
 5/01/26  7:30p   53.6   56.1   53.6    42   31.0   0.0     W   0.00   3.0    NW   53.6   51.5   51.5  29.851  0.00  0.00   0.238   0.000   71.2    47   49.9   69.7   652    4    100.0   30 
 5/01/26  8:00p   50.7   53.6   50.7    52   33.7   0.0    NE   0.00   2.0    NE   50.7   49.5   49.5  29.865  0.00  0.00   0.298   0.000   70.8    48   50.1   69.2   650    4    100.0   30 
 5/01/26  8:30p   49.2   50.7   48.9    49   30.8   1.0   ENE   0.50   3.0   ENE   49.2   48.0   48.0  29.878  0.00  0.00   0.329   0.000   70.4    48   49.8   68.7   651    4    100.0   30 
 5/01/26  9:00p   48.2   49.6   48.2    55   32.8   1.0   ENE   0.50   3.0   ENE   48.2   47.2   47.2  29.893  0.00  0.00   0.350   0.000   70.0    48   49.4   68.1   654    4    100.0   30 
 5/01/26  9:30p   48.4   48.6   48.1    52   31.6   1.0   ENE   0.50   3.0   ENE   48.4   47.3   47.3  29.897  0.00  0.00   0.346   0.000   69.7    48   49.1   67.9   652    4    100.0   30 
 5/01/26 10:00p   48.5   48.6   48.4    53   32.1   0.0   ENE   0.00   3.0   ENE   48.5   47.4   47.4  29.896  0.00  0.00   0.344   0.000   69.4    48   48.9   67.6   652    4    100.0   30 
 5/01/26 10:30p   48.5   48.5   48.4    54   32.6   0.0   ENE   0.00   1.0   ENE   48.5   47.5   47.5  29.891  0.00  0.00   0.344   0.000   68.9    48   48.4   67.2   654    4    100.0   30 
 5/01/26 11:00p   47.4   48.5   47.2    56   32.5   1.0   ENE   0.50   3.0   ENE   47.4   46.4   46.4  29.894  0.00  0.00   0.367   0.000   68.6    48   48.1   67.0   653    4    100.0   30 
 5/01/26 11:30p   48.0   48.4   47.5    59   34.3   0.0   ENE   0.00   2.0   ENE   48.0   47.2   47.2  29.895  0.00  0.00   0.354   0.000   68.1    49   48.2   66.6   652    4    100.0   30 
 5/02/26 12:00a   47.9   48.0   47.6    60   34.7   0.0   ENE   0.00   2.0   ENE   47.9   47.1   47.1  29.901  0.00  0.00   0.356   0.000   67.7    49   47.8   66.2   652    4    100.0   30 
 5/02/26 12:30a   47.6   47.9   47.6    60   34.4   1.0   ENE   0.50   2.0   ENE   47.6   46.8   46.8  29.898  0.00  0.00   0.363   0.000   67.4    49   47.6   65.9   650    4    100.0   30 
 5/02/26  1:00a   46.5   47.7   46.5    68   36.5   0.0    SE   0.00   1.0   ENE   46.5   45.9   45.9  29.911  0.00  0.00   0.385   0.000   67.0    49   47.2   65.4   651    4    100.0   30 
 5/02/26  1:30a   45.3   46.5   45.3    73   37.2   0.0   WSW   0.00   3.0     W   45.3   44.9   44.9  29.927  0.00  0.00   0.410   0.000   66.6    49   46.8   64.9   645    4    100.0   30 
 5/02/26  2:00a   43.4   45.3   43.4    83   38.6   0.0   NNE   0.00   3.0     W   43.4   43.2   43.2  29.924  0.01  0.00   0.450   0.000   66.2    49   46.5   64.5   648    4    100.0   30 
 5/02/26  2:30a   42.3   43.4   42.2    89   39.3   2.0   ENE   1.00   4.0   ENE   42.3   42.3   42.3  29.915  0.01  0.00   0.473   0.000   65.9    49   46.2   64.1   652    4    100.0   30 
 5/02/26  3:00a   42.1   42.3   42.1    91   39.7   2.0   ENE   1.00   4.0   ENE   42.1   42.1   42.1  29.904  0.01  0.00   0.477   0.000   65.5    49   45.8   63.7   653    4    100.0   30 
 5/02/26  3:30a   42.0   42.2   42.0    92   39.8   1.0   ENE   0.50   3.0   ENE   42.0   42.0   42.0  29.897  0.00  0.00   0.479   0.000   65.1    49   45.5   63.3   652    4    100.0   30 
 5/02/26  4:00a   42.0   42.1   41.9    94   40.4   1.0   ENE   0.50   3.0   ENE   42.0   42.1   42.1  29.892  0.01  0.00   0.479   0.000   64.8    49   45.2   62.9   651    4    100.0   30 
 5/02/26  4:30a   41.7   42.1   41.7    94   40.1   0.0   NNW   0.00   3.0    NW   41.7   41.8   41.8  29.896  0.01  0.00   0.485   0.000   64.4    49   44.8   62.5   642    4    100.0   30 
 5/02/26  5:00a   41.3   41.7   41.3    95   40.0   0.0    SE   0.00   3.0   ESE   41.3   41.4   41.4  29.894  0.02  0.00   0.494   0.000   64.1    49   44.5   62.1   653    4    100.0   30 
 5/02/26  5:30a   41.6   41.6   41.3    95   40.3   0.0    SE   0.00   3.0    SE   41.6   41.7   41.7  29.891  0.02  0.06   0.488   0.000   63.7    49   44.2   61.7   652    4    100.0   30 
 5/02/26  6:00a   41.9   41.9   41.6    95   40.6   1.0    SE   0.50   4.0   ESE   41.9   42.0   42.0  29.883  0.02  0.05   0.481   0.000   63.3    49   43.8   61.3   651    4    100.0   30 
 5/02/26  6:30a   42.3   42.3   41.9    94   40.7   0.0   SSE   0.00   2.0     S   42.3   42.4   42.4  29.880  0.00  0.00   0.473   0.000   62.9    49   43.4   60.9   654    4    100.0   30 
 5/02/26  7:00a   42.1   42.3   42.0    95   40.8   0.0     N   0.00   2.0    SW   42.1   42.2   42.2  29.893  0.00  0.00   0.477   0.000   62.5    49   43.1   60.5   652    4    100.0   30 
 5/02/26  7:30a   42.2   42.2   42.0    96   41.1   0.0     N   0.00   2.0    NW   42.2   42.3   42.3  29.896  0.00  0.00   0.475   0.000   62.3    49   42.9   60.3   654    4    100.0   30 
 5/02/26  8:00a   42.8   42.8   42.2    96   41.7   0.0    NW   0.00   2.0   NNW   42.8   42.9   42.9  29.898  0.01  0.00   0.463   0.000   62.0    49   42.6   59.9   653    4    100.0   30 
 5/02/26  8:30a   43.6   43.6   42.7    96   42.5   0.0    NW   0.00   2.0    NW   43.6   43.8   43.8  29.900  0.00  0.00   0.446   0.000   61.7    49   42.3   59.6   654    4    100.0   30 
 5/02/26  9:00a   44.1   44.1   43.6    96   43.0   1.0   SSW   0.50   3.0   SSW   44.1   44.3   44.3  29.902  0.00  0.00   0.435   0.000   61.5    49   42.2   59.4   650    4    100.0   30 
 5/02/26  9:30a   45.0   45.0   44.0    96   43.9   1.0   SSE   0.50   5.0   SSE   45.0   45.2   45.2  29.895  0.00  0.00   0.417   0.000   61.2    49   41.9   59.1   653    4    100.0   30 
 5/02/26 10:00a   45.0   45.4   45.0    93   43.1   2.0   SSW   1.00   5.0   SSE   45.0   45.2   45.2  29.895  0.00  0.00   0.417   0.000   64.9    49   45.3   63.0   649    4    100.0   30 
 5/02/26 10:30a   45.2   45.5   45.0    94   43.6   1.0   WNW   0.50   4.0    SW   45.2   45.4   45.4  29.902  0.00  0.00   0.412   0.000   67.0    48   46.7   65.3   653    4    100.0   30 
 5/02/26 11:00a   45.3   45.3   44.9    94   43.7   1.0   SSE   0.50   3.0   SSE   45.3   45.5   45.5  29.896  0.04  0.07   0.410   0.000   66.8    48   46.5   65.1   655    4    100.0   30 
 5/02/26 11:30a   47.4   47.5   45.2    87   43.7   2.0   ESE   1.00   4.0   SSE   47.4   47.5   47.5  29.885  0.02  0.07   0.367   0.000   66.0    48   45.7   64.2   653    4    100.0   30 
 5/02/26 12:00p   49.4   49.5   47.4    82   44.1   2.0     S   1.00   6.0   SSE   49.4   49.4   49.4  29.881  0.00  0.00   0.325   0.000   65.6    48   45.4   63.7   651    4    100.0   30 
 5/02/26 12:30p   50.8   51.4   49.4    79   44.5   1.0   SSW   0.50   6.0   SSW   50.8   50.6   50.6  29.873  0.00  0.00   0.296   0.000   65.3    48   45.1   63.4   652    4    100.0   30 
 5/02/26  1:00p   52.4   52.5   50.1    76   45.1   3.0    SW   1.50   9.0   WSW   52.3   52.0   51.9  29.866  0.00  0.00   0.262   0.000   65.0    48   44.8   63.1   645    4    100.0   30 
 5/02/26  1:30p   51.2   52.6   51.1    79   44.9   2.0   WNW   1.00   7.0     W   51.2   51.0   51.0  29.862  0.00  0.00   0.287   0.000   64.9    48   44.7   63.0   649    4    100.0   30 
 5/02/26  2:00p   50.7   51.6   50.7    77   43.8   2.0     S   1.00   6.0   SSW   50.7   50.4   50.4  29.862  0.00  0.00   0.298   0.000   64.6    48   44.5   62.6   651    4    100.0   30 
 5/02/26  2:30p   48.9   50.7   48.8    89   45.8   2.0   SSE   1.00   5.0    SE   48.9   49.2   49.2  29.859  0.03  0.08   0.335   0.000   64.4    48   44.3   62.4   653    4    100.0   30 
 5/02/26  3:00p   50.3   50.4   48.8    82   45.0   2.0    SE   1.00   5.0     S   50.3   50.3   50.3  29.856  0.01  0.07   0.306   0.000   64.4    48   44.3   62.4   650    4    100.0   30 
 5/02/26  3:30p   50.5   50.5   50.1    82   45.2   1.0   WNW   0.50   3.0   WSW   50.5   50.5   50.5  29.851  0.00  0.00   0.302   0.000   64.2    48   44.1   62.2   640    4    100.0   30 
 5/02/26  4:00p   52.1   52.2   50.5    80   46.1   1.0    NE   0.50   4.0   WNW   52.1   51.9   51.9  29.847  0.00  0.00   0.269   0.000   64.1    49   44.5   62.1   647    4    100.0   30 
 5/02/26  4:30p   51.4   52.2   51.4    81   45.8   1.0    NE   0.50   4.0    NE   51.4   51.2   51.2  29.841  0.00  0.00   0.283   0.000   64.0    49   44.4   62.0   649    4    100.0   30 
 5/02/26  5:00p   50.3   51.4   50.3    81   44.7   0.0    NE   0.00   2.0    NE   50.3   50.3   50.3  29.843  0.00  0.00   0.306   0.000   63.9    49   44.4   61.9   649    4    100.0   30 
 5/02/26  5:30p   50.7   50.7   50.3    76   43.4   0.0     W   0.00   2.0     W   50.7   50.4   50.4  29.842  0.00  0.00   0.298   0.000   63.7    49   44.2   61.7   636    4    100.0   30 
 5/02/26  6:00p   50.5   50.7   50.5    77   43.6   0.0    NW   0.00   2.0    NW   50.5   50.3   50.3  29.846  0.00  0.00   0.302   0.000   63.6    49   44.1   61.6   633    4     99.5   30 
 5/02/26  6:30p   49.8   50.5   49.7    80   43.9   0.0    NW   0.00   1.0    NW   49.8   49.8   49.8  29.846  0.00  0.00   0.317   0.000   63.4    49   43.9   61.4   641    4    100.0   30 
 5/02/26  7:00p   49.3   49.8   49.2    72   40.7   0.0     W   0.00   3.0     W   49.3   49.0   49.0  29.854  0.00  0.00   0.327   0.000   63.2    49   43.7   61.2   647    4    100.0   30 
 5/02/26  7:30p   50.0   50.4   49.3    73   41.7   0.0   WNW   0.00   2.0     W   50.0   49.7   49.7  29.862  0.00  0.00   0.313   0.000   63.0    49   43.5   61.0   646    4    100.0   30 
 5/02/26  8:00p   48.3   50.1   48.3    54   32.4   2.0     W   1.00  11.0   WNW   48.3   47.3   47.3  29.875  0.00  0.00   0.348   0.000   62.8    49   43.3   60.8   651    4    100.0   30 
 5/02/26  8:30p   46.7   48.3   46.7    55   31.4   3.0     W   1.50  10.0     W   46.0   45.7   45.0  29.885  0.00  0.00   0.381   0.000   62.5    49   43.1   60.5   653    4    100.0   30 
 5/02/26  9:00p   44.9   46.7   44.8    62   32.7   1.0   WNW   0.50   4.0    NW   44.9   44.1   44.1  29.895  0.00  0.00   0.419   0.000   62.2    49   42.8   60.2   654    4    100.0   30 
 5/02/26  9:30p   43.2   44.9   43.2    74   35.5   1.0    NE   0.50   3.0    NE   43.2   42.8   42.8  29.908  0.00  0.00   0.454   0.000   62.0    49   42.6   59.9   652    4    100.0   30 
 5/02/26 10:00p   42.1   43.2   42.1    78   35.7   1.0   NNE   0.50   4.0   NNE   42.1   41.8   41.8  29.909  0.00  0.00   0.477   0.000   61.7    49   42.3   59.6   651    4    100.0   30 
 5/02/26 10:30p   41.0   42.1   41.0    81   35.6   1.0    NE   0.50   3.0    NE   41.0   40.7   40.7  29.905  0.00  0.00   0.500   0.000   61.4    49   42.1   59.3   652    4    100.0   30 
 5/02/26 11:00p   40.5   41.0   40.5    81   35.1   1.0    NE   0.50   3.0    NE   40.5   40.2   40.2  29.900  0.00  0.00   0.510   0.000   61.1    49   41.8   59.0   647    4    100.0   30 
 5/02/26 11:30p   39.6   40.5   39.5    83   34.9   0.0    NE   0.00   2.0    NE   39.6   39.4   39.4  29.895  0.00  0.00   0.529   0.000   60.8    49   41.5   58.7   654    4    100.0   30 
 5/03/26 12:00a   38.5   39.6   38.5    85   34.4   0.0     E   0.00   1.0     E   38.5   38.3   38.3  29.896  0.00  0.00   0.552   0.000   60.4    49   41.1   58.3   653    4    100.0   30 
 5/03/26 12:30a   38.4   38.6   38.2    86   34.6   0.0     E   0.00   2.0    NE   38.4   38.2   38.2  29.886  0.00  0.00   0.554   0.000   60.1    49   40.9   58.0   652    4    100.0   30 
 5/03/26  1:00a   38.1   38.6   38.1    87   34.6   0.0    NE   0.00   2.0    NE   38.1   37.9   37.9  29.886  0.00  0.00   0.560   0.000   59.7    49   40.5   57.6   650    4    100.0   30 
 5/03/26  1:30a   37.9   38.1   37.9    86   34.1   0.0    NE   0.00   1.0    NE   37.9   37.7   37.7  29.871  0.00  0.00   0.565   0.000   59.4    49   40.2   57.3   653    4    100.0   30 
 5/03/26  2:00a   37.9   38.0   37.9    86   34.1   0.0    NE   0.00   1.0    NE   37.9   37.7   37.7  29.867  0.00  0.00   0.565   0.000   59.1    49   39.9   57.0   649    4    100.0   30 
 5/03/26  2:30a   37.3   37.9   37.3    88   34.1   0.0    NE   0.00   1.0    NE   37.3   37.2   37.2  29.858  0.00  0.00   0.577   0.000   58.8    49   39.7   56.7   652    4    100.0   30 
 5/03/26  3:00a   37.5   37.5   37.2    86   33.7   0.0    NE   0.00   2.0    NE   37.5   37.3   37.3  29.843  0.00  0.00   0.573   0.000   58.4    49   39.3   56.3   653    4    100.0   30 
 5/03/26  3:30a   36.9   37.6   36.9    86   33.1   0.0    NE   0.00   1.0    NE   36.9   36.7   36.7  29.836  0.00  0.00   0.585   0.000   58.1    49   39.0   56.0   654    4    100.0   30 
 5/03/26  4:00a   36.4   36.9   36.4    88   33.2   0.0    NE   0.00   2.0    NE   36.4   36.3   36.3  29.828  0.00  0.00   0.596   0.000   57.7    49   38.7   55.6   653    4    100.0   30 
 5/03/26  4:30a   36.2   36.4   35.7    90   33.5   0.0    NE   0.00   2.0    NE   36.2   36.1   36.1  29.828  0.00  0.00   0.600   0.000   57.4    49   38.4   55.4   652    4    100.0   30 
 5/03/26  5:00a   37.2   37.2   36.2    88   34.0   0.0    NE   0.00   3.0   NNE   37.2   37.1   37.1  29.815  0.00  0.00   0.579   0.000   57.1    49   38.1   55.1   653    4    100.0   30 
 5/03/26  5:30a   37.1   37.2   37.1    89   34.2   0.0   NNE   0.00   2.0    NE   37.1   37.0   37.0  29.808  0.00  0.00   0.581   0.000   56.7    49   37.7   54.7   652    4    100.0   30 
 5/03/26  6:00a   37.6   37.6   37.1    87   34.1   0.0   NNE   0.00   5.0   ENE   37.6   37.4   37.4  29.810  0.00  0.00   0.571   0.000   56.4    49   37.5   54.4   648    4    100.0   30 
 5/03/26  6:30a   38.0   38.0   37.6    87   34.5   1.0    NE   0.50   3.0    NE   38.0   37.8   37.8  29.808  0.00  0.00   0.563   0.000   56.1    49   37.2   54.1   651    4    100.0   30 
 5/03/26  7:00a   38.4   38.5   38.0    85   34.3   1.0   NNE   0.50   5.0   NNE   38.4   38.2   38.2  29.809  0.00  0.00   0.554   0.000   55.8    49   36.9   53.9   654    4    100.0   30 
 5/03/26  7:30a   39.3   39.3   38.4    85   35.2   1.0   NNE   0.50   3.0   NNE   39.3   39.1   39.1  29.813  0.00  0.00   0.535   0.000   55.5    49   36.6   53.6   651    4    100.0   30 
 5/03/26  8:00a   39.9   39.9   39.2    83   35.2   1.0   NNE   0.50   4.0    NE   39.9   39.7   39.7  29.817  0.00  0.00   0.523   0.000   55.3    49   36.5   53.4   652    4    100.0   30 
 5/03/26  8:30a   40.8   40.8   39.9    81   35.4   1.0    NE   0.50   3.0    NE   40.8   40.5   40.5  29.821  0.00  0.00   0.504   0.000   55.1    49   36.3   53.2   652    4    100.0   30 
 5/03/26  9:00a   42.1   42.2   40.8    79   36.1   1.0   NNE   0.50   4.0    NW   42.1   41.8   41.8  29.819  0.00  0.00   0.477   0.000   54.9    49   36.1   53.0   652    4    100.0   30 
 5/03/26  9:30a   43.6   43.6   42.2    73   35.5   1.0   NNE   0.50   7.0    NW   43.6   43.1   43.1  29.814  0.00  0.00   0.446   0.000   54.7    49   35.9   52.9   652    4    100.0   30 
 5/03/26 10:00a   45.0   45.0   43.6    69   35.4   2.0   NNE   1.00  11.0     W   45.0   44.5   44.5  29.806  0.00  0.00   0.417   0.000   54.6    49   35.8   52.8   650    4    100.0   30 
 5/03/26 10:30a   46.5   46.7   45.0    62   34.2   3.0     N   1.50  11.0   NNW   45.8   45.7   45.0  29.798  0.00  0.00   0.385   0.000   54.6    49   35.8   52.8   649    4    100.0   30 
 5/03/26 11:00a   45.8   46.5   45.7    62   33.5   2.0    NE   1.00  11.0     W   45.8   45.0   45.0  29.793  0.00  0.00   0.400   0.000   54.6    49   35.8   52.8   651    4    100.0   30 
 5/03/26 11:30a   48.1   48.1   45.8    54   32.2   3.0   NNE   1.50  12.0   NNW   47.5   47.1   46.5  29.784  0.00  0.00   0.352   0.000   54.6    49   35.8   52.8   649    4    100.0   30 
 5/03/26 12:00p   46.7   48.1   46.7    52   30.0   4.0    NW   2.00  15.0   WNW   45.0   45.6   43.9  29.781  0.00  0.00   0.381   0.000   54.6    48   35.3   52.7   651    4    100.0   30 
 5/03/26 12:30p   46.5   47.1   46.5    52   29.8   3.0   NNE   1.50  13.0   NNE   45.8   45.4   44.7  29.778  0.00  0.00   0.385   0.000   54.6    48   35.3   52.7   649    4    100.0   30 
 5/03/26  1:00p   46.4   47.4   46.4    49   28.3   4.0     W   2.00  17.0   WNW   44.7   45.2   43.5  29.778  0.00  0.00   0.387   0.000   54.7    48   35.4   52.8   651    4    100.0   30 
 5/03/26  1:30p   49.6   49.7   46.3    46   29.6   5.0     W   2.50  19.0     W   47.7   48.3   46.4  29.775  0.00  0.00   0.321   0.000   54.7    48   35.4   52.8   652    4    100.0   30 
 5/03/26  2:00p   48.8   49.6   48.2    46   28.9   5.0     W   2.50  15.0     W   46.8   47.5   45.5  29.777  0.00  0.00   0.338   0.000   54.8    48   35.5   52.9   651    4    100.0   30 
 5/03/26  2:30p   47.8   48.8   47.1    49   29.5   6.0   WNW   3.00  23.0     W   45.1   46.6   43.9  29.788  0.00  0.00   0.358   0.000   54.9    48   35.6   53.0   650    4    100.0   30 
 5/03/26  3:00p   47.2   47.9   47.2    48   28.5   4.0     W   2.00  15.0   WNW   45.6   46.0   44.4  29.790  0.00  0.00   0.371   0.000   54.9    48   35.6   53.0   652    4    100.0   30 
 5/03/26  3:30p   48.3   48.4   47.1    48   29.5   3.0   ENE   1.50  15.0     W   47.7   47.1   46.5  29.789  0.00  0.00   0.348   0.000   55.0    48   35.7   53.1   650    4    100.0   30 
 5/03/26  4:00p   48.7   48.9   47.8    46   28.8   4.0   WNW   2.00  13.0     W   47.4   47.4   46.1  29.783  0.00  0.00   0.340   0.000   55.1    48   35.7   53.2   649    4    100.0   30 
 5/03/26  4:30p   49.2   49.3   47.8    47   29.8   4.0    NW   2.00  15.0   WNW   47.9   47.9   46.6  29.782  0.00  0.00   0.329   0.000   55.1    48   35.7   53.2   649    4    100.0   30 
 5/03/26  5:00p   48.2   49.3   47.8    47   28.9   4.0     W   2.00  13.0   WNW   46.8   46.9   45.5  29.786  0.00  0.00   0.350   0.000   55.2    48   35.8   53.3   653    4    100.0   30 
 5/03/26  5:30p   49.0   49.7   48.2    44   28.0   5.0     W   2.50  13.0   WNW   47.0   47.7   45.7  29.788  0.00  0.00   0.333   0.000   55.3    48   35.9   53.4   652    4    100.0   30 
 5/03/26  6:00p   49.3   50.9   49.1    45   28.8   3.0   WNW   1.50  12.0   WSW   48.9   48.0   47.6  29.796  0.00  0.00   0.327   0.000   55.3    48   35.9   53.4   652    4    100.0   30 
 5/03/26  6:30p   50.7   50.8   49.0    42   28.4   2.0   WNW   1.00  12.0   WNW   50.7   49.1   49.1  29.795  0.00  0.00   0.298   0.000   55.4    48   36.0   53.4   649    4    100.0   30 
 5/03/26  7:00p   48.6   50.7   48.5    44   27.6   2.0     W   1.00   9.0   WNW   48.6   47.3   47.3  29.797  0.00  0.00   0.342   0.000   55.3    48   35.9   53.4   651    4    100.0   30 
 5/03/26  7:30p   48.4   49.1   48.4    45   28.0   1.0    SW   0.50   8.0   WNW   48.4   47.1   47.1  29.800  0.00  0.00   0.346   0.000   55.2    48   35.8   53.3   655    4    100.0   30 
 5/03/26  8:00p   46.0   48.4   46.0    48   27.4   1.0    NE   0.50   3.0   ENE   46.0   44.8   44.8  29.804  0.00  0.00   0.396   0.000   55.2    48   35.8   53.3   649    4    100.0   30 
 5/03/26  8:30p   43.5   46.0   43.5    52   27.0   0.0    NE   0.00   2.0    NE   43.5   42.4   42.4  29.813  0.00  0.00   0.448   0.000   55.1    48   35.7   53.2   653    4    100.0   30 
 5/03/26  9:00p   42.8   43.5   42.6    53   26.8   1.0    NE   0.50   2.0    NE   42.8   41.8   41.8  29.825  0.00  0.00   0.463   0.000   55.0    48   35.7   53.1   652    4    100.0   30 
 5/03/26  9:30p   42.1   42.8   41.7    53   26.2   1.0    NE   0.50   3.0    NE   42.1   41.1   41.1  29.842  0.00  0.00   0.477   0.000   54.8    48   35.5   52.9   651    4    100.0   30 
 5/03/26 10:00p   40.8   42.1   40.7    56   26.3   1.0    NE   0.50   2.0    NE   40.8   39.8   39.8  29.850  0.00  0.00   0.504   0.000   54.7    48   35.4   52.8   650    4    100.0   30 
 5/03/26 10:30p   40.9   41.1   40.7    57   26.8   0.0    NE   0.00   3.0    NE   40.9   40.0   40.0  29.853  0.00  0.00   0.502   0.000   54.5    48   35.2   52.6   653    4    100.0   30 
 5/03/26 11:00p   40.0   40.9   40.0    59   26.8   0.0    NE   0.00   3.0    NE   40.0   39.2   39.2  29.850  0.00  0.00   0.521   0.000   54.3    48   35.0   52.5   652    4    100.0   30 
 5/03/26 11:30p   40.6   40.7   39.9    59   27.4   0.0   ENE   0.00   2.0   ENE   40.6   39.8   39.8  29.844  0.00  0.00   0.508   0.000   54.0    48   34.7   52.2   652    4    100.0   30 
 5/04/26 12:00a   40.6   40.9   40.4    59   27.4   0.0   SSE   0.00   3.0   SSE   40.6   39.8   39.8  29.851  0.00  0.00   0.508   0.000   53.8    48   34.6   52.0   654    4    100.0   30 
 5/04/26 12:30a   41.8   41.8   40.6    58   28.1   0.0    SE   0.00   4.0     S   41.8   40.9   40.9  29.855  0.00  0.00   0.483   0.000   53.7    48   34.5   51.9   648    4    100.0   30 
 5/04/26  1:00a   42.3   42.3   41.7    59   29.0   1.0    SE   0.50   4.0     S   42.3   41.5   41.5  29.849  0.00  0.00   0.473   0.000   53.5    48   34.3   51.8   653    4    100.0   30 
 5/04/26  1:30a   42.9   42.9   42.3    59   29.5   2.0     S   1.00   7.0   SSE   42.9   42.1   42.1  29.849  0.00  0.00   0.460   0.000   53.2    48   34.0   51.5   644    4    100.0   30 
 5/04/26  2:00a   42.3   43.0   42.3    67   32.1   3.0     S   1.50   9.0   SSE   41.0   41.6   40.3  29.846  0.00  0.00   0.473   0.000   53.1    48   33.9   51.4   644    4    100.0   30 
 5/04/26  2:30a   42.1   42.3   42.0    69   32.7   3.0     S   1.50   7.0     S   40.7   41.5   40.1  29.844  0.00  0.00   0.477   0.000   52.8    48   33.6   51.1   643    4    100.0   30 
 5/04/26  3:00a   43.6   43.6   42.1    69   34.1   2.0     S   1.00   5.0   SSE   43.6   43.0   43.0  29.844  0.00  0.00   0.446   0.000   52.7    48   33.5   51.0   638    4    100.0   30 
 5/04/26  3:30a   44.3   44.3   43.6    70   35.1   2.0     S   1.00   5.0     S   44.3   43.8   43.8  29.852  0.00  0.00   0.431   0.000   52.5    48   33.4   50.9   646    4    100.0   30 
 5/04/26  4:00a   44.7   44.7   44.3    69   35.1   2.0     S   1.00   6.0   SSE   44.7   44.2   44.2  29.852  0.00  0.00   0.423   0.000   52.3    48   33.2   50.7   648    4    100.0   30 
 5/04/26  4:30a   44.1   44.7   44.0    69   34.6   2.0     S   1.00   5.0     S   44.1   43.6   43.6  29.848  0.00  0.00   0.435   0.000   52.2    48   33.1   50.6   649    4    100.0   30 
 5/04/26  5:00a   43.9   44.1   43.8    70   34.7   2.0   SSE   1.00   5.0     S   43.9   43.4   43.4  29.848  0.00  0.00   0.440   0.000   52.0    48   32.9   50.4   643    4    100.0   30 
 5/04/26  5:30a   43.6   44.0   43.6    69   34.1   2.0     S   1.00   6.0   SSW   43.6   43.0   43.0  29.844  0.00  0.00   0.446   0.000   51.9    48   32.8   50.3   644    4    100.0   30 
 5/04/26  6:00a   43.5   43.6   42.4    70   34.4   2.0   ESE   1.00   6.0   ESE   43.5   43.0   43.0  29.841  0.00  0.00   0.448   0.000   51.7    48   32.6   50.2   637    4    100.0   30 
 5/04/26  6:30a   43.4   43.9   43.4    70   34.3   3.0   SSE   1.50   7.0    SE   42.2   42.8   41.6  29.843  0.00  0.00   0.450   0.000   57.1    46   36.5   54.9   640    4    100.0   30 
 5/04/26  7:00a   44.9   44.9   43.4    67   34.6   4.0     S   2.00   7.0   SSE   43.0   44.3   42.4  29.854  0.00  0.00   0.419   0.000   64.4    42   40.8   62.0   646    4    100.0   30 
 5/04/26  7:30a   46.8   46.8   44.9    64   35.3   6.0     S   3.00  13.0     S   43.9   46.1   43.2  29.852  0.00  0.00   0.379   0.000   67.8    41   43.2   65.6   642    4    100.0   30 
 5/04/26  8:00a   48.6   48.6   46.8    61   35.7   7.0     S   3.50  13.0     S   45.5   47.8   44.7  29.853  0.00  0.00   0.342   0.000   69.1    41   44.4   66.7   647    4    100.0   30 
 5/04/26  8:30a   50.5   50.5   48.7    58   36.3   7.0     S   3.50  13.0   SSE   47.8   49.6   46.9  29.849  0.00  0.00   0.302   0.000   69.8    40   44.4   67.3   647    4    100.0   30 
 5/04/26  9:00a   52.7   52.7   50.4    56   37.4   7.0     S   3.50  17.0   SSE   50.4   51.4   49.1  29.830  0.00  0.00   0.256   0.000   70.1    41   45.3   67.7   640    4    100.0   30 
 5/04/26  9:30a   55.0   55.0   52.7    54   38.6   7.0     S   3.50  14.0    SW   53.2   53.4   51.6  29.831  0.00  0.00   0.208   0.000   69.5    42   45.4   67.2   642    4    100.0   30 
 5/04/26 10:00a   57.2   57.2   55.0    53   40.2   7.0   SSW   3.50  13.0    SW   55.8   55.4   54.0  29.814  0.00  0.00   0.162   0.000   69.2    43   45.7   67.0   647    4    100.0   30 
 5/04/26 10:30a   59.3   59.6   57.2    49   40.1   8.0   SSW   4.00  18.0     S   57.7   57.2   55.6  29.801  0.00  0.00   0.119   0.000   68.4    44   45.6   66.4   649    4    100.0   30 
 5/04/26 11:00a   61.1   61.2   58.8    44   39.0   8.0   SSW   4.00  22.0   WSW   59.8   58.7   57.4  29.805  0.00  0.00   0.081   0.000   67.4    44   44.7   65.4   643    4    100.0   30 
 5/04/26 11:30a   62.1   62.8   61.1    42   38.7   7.0    SW   3.50  15.0   WNW   61.8   59.6   59.3  29.799  0.00  0.00   0.060   0.000   66.8    44   44.2   64.8   644    4    100.0   30 
 5/04/26 12:00p   61.1   62.5   60.9    43   38.4   7.0    SW   3.50  18.0   WSW   60.5   58.6   58.0  29.798  0.00  0.00   0.081   0.000   67.2    44   44.5   65.2   648    4    100.0   30 
 5/04/26 12:30p   61.5   61.5   60.4    44   39.4   7.0    SW   3.50  17.0    SW   61.1   59.1   58.7  29.790  0.00  0.00   0.073   0.000   66.7    45   44.7   64.8   643    4    100.0   30 
 5/04/26  1:00p   63.1   63.1   61.3    43   40.2   7.0    SW   3.50  25.0     S   63.0   60.6   60.5  29.779  0.00  0.00   0.040   0.000   66.2    45   44.2   64.2   649    4    100.0   30 
 5/04/26  1:30p   64.3   65.0   63.1    43   41.3   8.0   SSW   4.00  23.0     S   63.6   62.0   61.3  29.777  0.00  0.00   0.015   0.000   66.6    40   41.5   64.2   649    4    100.0   30 
 5/04/26  2:00p   63.5   64.9   63.4    43   40.6   8.0    SW   4.00  19.0   WSW   62.7   61.1   60.3  29.770  0.00  0.00   0.031   0.000   67.3    37   40.1   64.6   646    4    100.0   30 
 5/04/26  2:30p   65.8   65.8   63.5    42   42.1   8.0    SW   4.00  19.0     S   65.2   63.5   62.9  29.759  0.00  0.00   0.000   0.017   67.8    36   39.9   65.1   642    4    100.0   30 
 5/04/26  3:00p   66.2   66.2   64.8    43   43.0   8.0    SW   4.00  21.0    SW   65.6   64.0   63.4  29.753  0.00  0.00   0.000   0.025   67.7    37   40.5   65.1   650    4    100.0   30 
 5/04/26  3:30p   65.7   66.5   65.5    40   40.7   6.0    SW   3.00  17.0     S   65.7   63.2   63.2  29.753  0.00  0.00   0.000   0.015   67.4    39   41.6   64.9   646    4    100.0   30 
 5/04/26  4:00p   67.9   67.9   65.2    41   43.3   6.0    SW   3.00  16.0   WNW   67.9   65.7   65.7  29.748  0.00  0.00   0.000   0.060   67.2    40   42.0   64.8   651    4    100.0   30 
 5/04/26  4:30p   66.8   67.9   66.4    41   42.3   6.0    SW   3.00  16.0    SW   66.8   64.5   64.5  29.746  0.00  0.00   0.000   0.038   67.1    41   42.6   64.8   644    4    100.0   30 
 5/04/26  5:00p   68.5   68.5   66.2    40   43.2   6.0    SW   3.00  16.0    NW   68.5   66.1   66.1  29.744  0.00  0.00   0.000   0.073   67.0    41   42.5   64.7   649    4    100.0   30 
 5/04/26  5:30p   67.7   68.6   67.7    38   41.2   5.0    SW   2.50  14.0     W   67.7   65.2   65.2  29.735  0.00  0.00   0.000   0.056   67.1    42   43.2   64.9   648    4    100.0   30 
 5/04/26  6:00p   67.7   67.7   67.0    41   43.1   6.0   SSW   3.00  14.0   WSW   67.7   65.5   65.5  29.731  0.00  0.00   0.000   0.056   67.1    43   43.8   65.0   649    4    100.0   30 
 5/04/26  6:30p   66.3   67.6   66.3    41   41.9   6.0   SSW   3.00  14.0     S   66.3   63.9   63.9  29.736  0.00  0.00   0.000   0.027   67.1    43   43.8   65.0   647    4    100.0   30 
 5/04/26  7:00p   64.9   66.3   64.9    44   42.5   4.0   SSW   2.00  10.0   WSW   64.9   62.7   62.7  29.744  0.00  0.00   0.002   0.000   67.0    43   43.8   64.9   651    4    100.0   30 
 5/04/26  7:30p   64.6   65.0   64.5    42   41.0   4.0   SSW   2.00   9.0     S   64.6   62.2   62.2  29.755  0.00  0.00   0.008   0.000   67.0    43   43.8   64.9   648    4    100.0   30 
 5/04/26  8:00p   63.6   64.7   63.6    44   41.3   4.0   SSW   2.00   9.0   SSW   63.6   61.3   61.3  29.767  0.00  0.00   0.029   0.000   67.1    42   43.2   64.9   644    4    100.0   30 
 5/04/26  8:30p   62.6   63.5   62.2    45   40.9   4.0     S   2.00   9.0     S   62.6   60.3   60.3  29.781  0.00  0.00   0.050   0.000   67.4    42   43.5   65.2   649    4    100.0   30 
 5/04/26  9:00p   61.3   62.6   61.3    46   40.3   4.0     S   2.00   9.0   SSE   61.3   59.1   59.1  29.790  0.00  0.00   0.077   0.000   67.2    43   43.9   65.1   645    4    100.0   30 
 5/04/26  9:30p   60.8   61.3   60.7    47   40.4   4.0     S   2.00   9.0     S   60.8   58.6   58.6  29.795  0.00  0.00   0.088   0.000   67.0    43   43.8   64.9   647    4    100.0   30 
 5/04/26 10:00p   60.0   60.8   59.9    52   42.3   6.0     S   3.00  14.0    SW   59.6   58.1   57.7  29.804  0.00  0.00   0.104   0.000   66.8    43   43.6   64.7   647    4    100.0   30 
 5/04/26 10:30p   58.6   59.9   58.6    56   42.9   7.0     S   3.50  15.0   SSE   57.5   57.0   55.9  29.809  0.00  0.00   0.133   0.000   66.6    44   44.0   64.6   637    4    100.0   30 
 5/04/26 11:00p   57.9   58.6   57.8    59   43.7   8.0     S   4.00  15.0   SSE   56.0   56.4   54.5  29.809  0.00  0.00   0.148   0.000   66.4    44   43.8   64.3   642    4    100.0   30 
 5/04/26 11:30p   56.8   57.9   56.8    61   43.5   8.0     S   4.00  16.0   SSE   54.7   55.5   53.4  29.806  0.00  0.00   0.171   0.000   66.2    44   43.6   64.1   646    4    100.0   30 
 5/05/26 12:00a   55.6   56.9   55.6    63   43.2   6.0     S   3.00  15.0     S   54.3   54.4   53.1  29.818  0.00  0.00   0.196   0.000   66.0    45   44.0   64.0   639    4    100.0   30 
 5/05/26 12:30a   55.0   55.7   55.0    65   43.4   6.0   SSE   3.00  11.0   SSW   53.6   53.9   52.5  29.823  0.00  0.00   0.208   0.000   65.7    45   43.8   63.7   645    4    100.0   30 
 5/05/26  1:00a   54.1   55.0   54.1    67   43.4   5.0   SSE   2.50  11.0    SE   53.0   53.2   52.1  29.823  0.00  0.00   0.227   0.000   65.6    45   43.7   63.6   645    4    100.0   30 
 5/05/26  1:30a   53.5   54.0   53.5    68   43.2   5.0   SSE   2.50  10.0   SSE   52.3   52.7   51.5  29.816  0.00  0.00   0.240   0.000   65.4    45   43.5   63.3   652    4    100.0   30 
 5/05/26  2:00a   53.3   53.5   53.2    69   43.4   4.0   SSE   2.00  10.0   SSE   52.7   52.5   51.9  29.812  0.00  0.00   0.244   0.000   65.1    45   43.2   63.0   647    4    100.0   30 
 5/05/26  2:30a   53.4   53.5   53.2    68   43.1   4.0   SSE   2.00  12.0     S   52.8   52.6   52.0  29.807  0.00  0.00   0.242   0.000   64.9    45   43.0   62.8   644    4    100.0   30 
 5/05/26  3:00a   52.6   53.5   52.5    70   43.1   3.0   SSE   1.50   8.0   SSE   52.6   51.9   51.9  29.803  0.00  0.00   0.258   0.000   64.6    45   42.8   62.5   646    4    100.0   30 
 5/05/26  3:30a   51.9   52.7   51.8    71   42.8   3.0   SSE   1.50   7.0   SSE   51.8   51.3   51.2  29.796  0.00  0.00   0.273   0.000   64.4    46   43.2   62.3   651    4    100.0   30 
 5/05/26  4:00a   51.6   52.1   51.5    73   43.2   4.0   SSE   2.00   8.0   SSE   50.7   51.1   50.2  29.797  0.00  0.00   0.279   0.000   64.1    46   42.9   62.0   646    4    100.0   30 
 5/05/26  4:30a   51.7   51.9   51.5    73   43.3   3.0   SSE   1.50   7.0     S   51.6   51.2   51.1  29.803  0.00  0.00   0.277   0.000   63.9    46   42.7   61.8   647    4    100.0   30 
 5/05/26  5:00a   49.9   51.7   49.9    77   43.0   2.0   SSE   1.00   6.0     S   49.9   49.8   49.8  29.794  0.00  0.00   0.315   0.000   63.6    46   42.4   61.4   648    4    100.0   30 
 5/05/26  5:30a   48.8   50.0   48.8    80   42.9   1.0   SSE   0.50   4.0   SSE   48.8   48.7   48.7  29.791  0.00  0.00   0.338   0.000   63.4    46   42.2   61.2   644    4    100.0   30 
 5/05/26  6:00a   50.2   50.4   48.8    78   43.6   3.0   SSE   1.50   6.0     S   49.9   50.1   49.8  29.792  0.00  0.00   0.308   0.000   63.1    46   42.0   60.9   652    4    100.0   30 
 5/05/26  6:30a   49.9   50.1   49.5    79   43.6   2.0   SSE   1.00   6.0   SSE   49.9   49.9   49.9  29.785  0.00  0.00   0.315   0.000   62.8    46   41.7   60.6   646    4    100.0   30 
 5/05/26  7:00a   51.6   51.6   49.9    77   44.6   4.0     S   2.00   9.0   SSE   50.7   51.3   50.4  29.796  0.00  0.00   0.279   0.000   62.6    46   41.5   60.4   643    4    100.0   30 
 5/05/26  7:30a   53.9   53.9   51.6    76   46.5   5.0     S   2.50   9.0   SSE   52.8   53.4   52.3  29.812  0.00  0.00   0.231   0.000   62.4    46   41.3   60.2   647    4    100.0   30 
 5/05/26  8:00a   53.8   54.3   53.8    77   46.8   3.0   SSW   1.50   9.0   SSE   53.8   53.3   53.3  29.804  0.00  0.00   0.233   0.000   62.3    46   41.2   60.1   647    4    100.0   30 
 5/05/26  8:30a   56.1   56.1   53.7    74   47.9   5.0     S   2.50  10.0     S   55.4   55.4   54.7  29.801  0.00  0.00   0.185   0.000   62.1    46   41.1   59.9   642    4    100.0   30 
 5/05/26  9:00a   59.2   59.2   56.1    67   48.2   7.0     S   3.50  14.0   SSW   58.2   58.2   57.2  29.799  0.00  0.00   0.121   0.000   62.0    46   41.0   59.8   640    4    100.0   30 
 5/05/26  9:30a   61.7   61.7   59.2    64   49.4   7.0     S   3.50  14.0   SSE   61.3   60.7   60.3  29.800  0.00  0.00   0.069   0.000   61.9    46   40.9   59.7   642    4    100.0   30 
 5/05/26 10:00a   63.8   63.8   61.7    61   50.1   7.0   SSW   3.50  13.0     S   63.8   62.8   62.8  29.796  0.00  0.00   0.025   0.000   61.9    47   41.4   59.7   639    4    100.0   30 
 5/05/26 10:30a   66.6   66.6   63.8    59   51.8   7.0     S   3.50  13.0    SE   66.6   65.8   65.8  29.787  0.00  0.00   0.000   0.033   62.0    46   41.0   59.8   647    4    100.0   30 
 5/05/26 11:00a   68.0   68.0   66.5    57   52.2   5.0   SSE   2.50  10.0    SW   68.0   67.3   67.3  29.779  0.00  0.00   0.000   0.063   62.1    46   41.1   59.9   648    4    100.0   30 
 5/05/26 11:30a   72.0   72.0   67.9    51   52.9   8.0   SSW   4.00  16.0   SSE   71.5   71.2   70.7  29.765  0.00  0.00   0.000   0.146   62.3    46   41.2   60.1   648    4    100.0   30 
 5/05/26 12:00p   72.7   72.7   71.5    49   52.4   8.0     S   4.00  16.0    SW   72.2   72.0   71.5  29.751  0.00  0.00   0.000   0.160   62.5    46   41.4   60.3   645    4    100.0   30 
 5/05/26 12:30p   75.4   75.6   72.7    48   54.3   8.0     S   4.00  16.0     S   74.9   75.1   74.6  29.734  0.00  0.00   0.000   0.217   62.9    46   41.8   60.7   644    4    100.0   30 
 5/05/26  1:00p   76.5   76.5   75.4    43   52.3   9.0     S   4.50  18.0     S   75.3   75.7   74.5  29.709  0.00  0.00   0.000   0.240   63.3    46   42.2   61.1   651    4    100.0   30 
 5/05/26  1:30p   77.7   77.7   76.5    42   52.8  11.0     S   5.50  26.0     S   75.5   76.7   74.5  29.709  0.00  0.00   0.000   0.265   63.8    46   42.6   61.6   646    4    100.0   30 
 5/05/26  2:00p   78.5   78.7   77.7    43   54.1  11.0     S   5.50  25.0   SSE   76.4   77.6   75.5  29.696  0.00  0.00   0.000   0.281   64.3    46   43.1   62.2   641    4    100.0   30 
 5/05/26  2:30p   78.3   78.6   77.4    43   54.0  11.0     S   5.50  25.0     S   76.2   77.4   75.3  29.678  0.00  0.00   0.000   0.277   64.8    47   44.1   62.8   649    4    100.0   30 
 5/05/26  3:00p   77.0   78.7   77.0    42   52.1  13.0     S   6.50  24.0   SSE   74.1   76.1   73.2  29.671  0.00  0.00   0.000   0.250   65.3    47   44.5   63.4   645    4    100.0   30 
 5/05/26  3:30p   77.9   78.3   76.9    41   52.3  12.0     S   6.00  26.0   SSW   75.4   76.8   74.3  29.660  0.00  0.00   0.000   0.269   65.8    47   45.0   63.9   649    4    100.0   30 
 5/05/26  4:00p   78.7   78.8   77.8    37   50.2  11.0   SSW   5.50  27.0     S   76.6   77.3   75.2  29.654  0.00  0.00   0.000   0.285   66.3    47   45.5   64.5   649    4    100.0   30 
 5/05/26  4:30p   78.1   79.1   78.1    38   50.4  10.0   SSW   5.00  23.0    SW   76.3   76.7   74.9  29.642  0.00  0.00   0.000   0.273   66.7    47   45.8   64.9   652    4    100.0   30 
 5/05/26  5:00p   78.6   78.7   77.8    36   49.4  12.0   SSW   6.00  24.0    SW   76.2   77.1   74.7  29.649  0.00  0.00   0.000   0.283   67.3    46   45.8   65.5   652    4    100.0   30 
 5/05/26  5:30p   77.5   78.7   77.4    35   47.7  10.0   SSW   5.00  22.0    SE   75.7   75.9   74.1  29.658  0.00  0.00   0.000   0.260   70.0    40   44.6   67.5   651    4    100.0   30 
 5/05/26  6:00p   77.5   77.8   77.2    34   46.9   9.0   SSW   4.50  24.0     S   76.3   75.9   74.7  29.666  0.00  0.00   0.000   0.260   70.8    40   45.3   68.5   647    4    100.0   30 
 5/05/26  6:30p   75.9   77.6   75.9    46   53.6   8.0   SSW   4.00  22.0    SW   75.4   75.4   74.9  29.709  0.00  0.00   0.000   0.227   70.4    41   45.6   68.1   650    4    100.0   30 
 5/05/26  7:00p   68.4   75.9   68.3    63   55.3   2.0     N   1.00  11.0    NW   68.4   68.2   68.2  29.740  0.00  0.00   0.000   0.071   70.2    42   46.0   67.9   651    4    100.0   30 
 5/05/26  7:30p   66.8   68.3   66.4    66   55.1   2.0   WNW   1.00  13.0   NNW   66.8   66.6   66.6  29.746  0.00  0.00   0.000   0.038   70.1    43   46.6   67.9   651    4    100.0   30 
 5/05/26  8:00p   65.5   66.8   65.5    69   55.1   1.0     E   0.50   3.0   ENE   65.5   65.2   65.2  29.763  0.00  0.00   0.000   0.010   70.1    44   47.2   67.9   650    4    100.0   30 
 5/05/26  8:30p   65.3   65.5   65.0    69   54.9   2.0   SSE   1.00   7.0   SSE   65.3   65.0   65.0  29.770  0.00  0.00   0.000   0.006   70.0    44   47.1   67.8   648    4    100.0   30 
 5/05/26  9:00p   65.0   65.7   65.0    70   55.0   2.0   SSE   1.00   5.0   SSE   65.0   64.7   64.7  29.764  0.00  0.00   0.000   0.000   69.9    45   47.6   67.8   646    4    100.0   30 
 5/05/26  9:30p   65.3   65.3   64.8    70   55.3   2.0    SE   1.00   5.0    SE   65.3   65.1   65.1  29.774  0.00  0.00   0.000   0.006   69.9    45   47.6   67.8   645    4    100.0   30 
 5/05/26 10:00p   64.9   65.6   64.7    72   55.7   2.0   SSE   1.00   7.0     W   64.9   64.7   64.7  29.797  0.00  0.00   0.002   0.000   69.8    45   47.5   67.7   649    4    100.0   30 
 5/05/26 10:30p   64.4   64.9   64.3    72   55.2   5.0     S   2.50   9.0     S   64.4   64.2   64.2  29.793  0.00  0.00   0.012   0.000   69.7    46   48.0   67.7   649    4    100.0   30 
 5/05/26 11:00p   64.0   64.4   64.0    71   54.4   4.0   SSE   2.00   8.0     S   64.0   63.7   63.7  29.795  0.00  0.00   0.021   0.000   69.6    46   47.9   67.6   645    4    100.0   30 
 5/05/26 11:30p   63.4   64.0   63.4    71   53.8   4.0     S   2.00   8.0   SSE   63.4   63.0   63.0  29.789  0.00  0.00   0.033   0.000   69.6    46   47.9   67.6   643    4    100.0   30 
 5/06/26 12:00a   62.6   63.4   62.6    71   53.1   5.0     S   2.50  12.0   SSE   62.6   62.1   62.1  29.796  0.00  0.00   0.050   0.000   69.4    46   47.7   67.5   649    4    100.0   30 
 5/06/26 12:30a   62.1   62.7   62.1    71   52.6   6.0     S   3.00  13.0   SSE   62.1   61.5   61.5  29.795  0.00  0.00   0.060   0.000   69.4    46   47.7   67.5   646    4    100.0   30 
 5/06/26  1:00a   61.1   62.2   61.1    72   52.0   5.0     S   2.50  11.0     S   61.1   60.5   60.5  29.796  0.00  0.00   0.081   0.000   69.3    46   47.6   67.4   646    4    100.0   30 
 5/06/26  1:30a   60.0   61.2   60.0    73   51.3   4.0     S   2.00  10.0    SW   60.0   59.4   59.4  29.791  0.00  0.00   0.104   0.000   69.1    47   48.0   67.3   648    4    100.0   30 
 5/06/26  2:00a   58.9   60.0   58.9    75   51.0   4.0     S   2.00   7.0   SSW   58.9   58.3   58.3  29.792  0.00  0.00   0.127   0.000   68.9    47   47.8   67.1   648    4    100.0   30 
 5/06/26  2:30a   58.0   59.0   58.0    77   50.8   4.0   SSE   2.00   8.0   SSE   58.0   57.5   57.5  29.788  0.00  0.00   0.146   0.000   68.9    47   47.8   67.1   648    4    100.0   30 
 5/06/26  3:00a   57.7   58.2   57.7    78   50.9   4.0   SSE   2.00   9.0     S   57.7   57.3   57.3  29.799  0.00  0.00   0.152   0.000   68.7    47   47.6   66.9   647    4    100.0   30 
 5/06/26  3:30a   56.8   57.8   56.8    80   50.7   3.0   SSE   1.50   7.0     S   56.8   56.5   56.5  29.799  0.00  0.00   0.171   0.000   68.6    47   47.6   66.9   646    4    100.0   30 
 5/06/26  4:00a   56.8   56.9   56.6    81   51.0   3.0   SSE   1.50   7.0   SSE   56.8   56.5   56.5  29.797  0.00  0.00   0.171   0.000   68.4    47   47.4   66.7   649    4    100.0   30 
 5/06/26  4:30a   56.6   56.9   56.5    82   51.2   3.0   SSE   1.50   6.0   SSE   56.6   56.3   56.3  29.791  0.00  0.00   0.175   0.000   68.2    47   47.2   66.5   645    4    100.0   30 
 5/06/26  5:00a   56.6   56.8   56.5    82   51.2   3.0   SSE   1.50   7.0     S   56.6   56.3   56.3  29.778  0.00  0.00   0.175   0.000   68.1    47   47.1   66.4   648    4    100.0   30 
 5/06/26  5:30a   55.3   56.6   55.3    84   50.5   2.0     S   1.00   5.0   SSE   55.3   55.1   55.1  29.781  0.00  0.00   0.202   0.000   67.9    47   46.9   66.3   640    4    100.0   30 
 5/06/26  6:00a   55.2   55.3   55.0    86   51.1   2.0   SSE   1.00   6.0   SSE   55.2   55.1   55.1  29.784  0.00  0.00   0.204   0.000   67.7    47   46.7   66.0   643    4    100.0   30 
 5/06/26  6:30a   55.9   55.9   55.2    87   52.1   3.0   SSE   1.50   9.0   SSE   55.9   55.8   55.8  29.785  0.00  0.00   0.190   0.000   67.5    47   46.6   65.8   650    4    100.0   30 
 5/06/26  7:00a   56.2   56.2   55.8    87   52.4   5.0   SSE   2.50  11.0   SSE   55.5   56.1   55.4  29.787  0.00  0.00   0.183   0.000   67.3    48   46.9   65.7   652    4    100.0   30 
 5/06/26  7:30a   56.8   56.9   56.1    87   53.0   6.0   SSE   3.00  14.0     S   55.8   56.7   55.7  29.786  0.00  0.00   0.171   0.000   67.1    48   46.7   65.4   647    4    100.0   30 
 5/06/26  8:00a   57.3   57.3   56.8    87   53.5   7.0   SSE   3.50  14.0     S   56.0   57.2   55.9  29.772  0.00  0.00   0.160   0.000   67.0    48   46.7   65.3   650    4    100.0   30 
 5/06/26  8:30a   57.5   57.5   57.2    87   53.7   7.0     S   3.50  15.0   SSE   56.2   57.5   56.2  29.785  0.00  0.00   0.156   0.000   66.9    48   46.6   65.2   647    4    100.0   30 
 5/06/26  9:00a   57.8   57.9   57.5    87   54.0   5.0     S   2.50  11.0     S   57.4   57.8   57.4  29.781  0.00  0.00   0.150   0.000   66.7    48   46.4   65.0   649    4    100.0   30 
 5/06/26  9:30a   58.6   58.6   57.8    87   54.7   4.0     S   2.00  10.0   SSE   58.6   58.6   58.6  29.765  0.00  0.00   0.133   0.000   67.4    49   47.6   65.9   643    4    100.0   30 
 5/06/26 10:00a   60.5   60.5   58.6    84   55.6   5.0     S   2.50  10.0   SSE   60.5   60.5   60.5  29.763  0.00  0.00   0.094   0.000   68.9    49   48.9   67.3   650    4    100.0   30